Lake San Marcos, California
Current Conditions -  °F | °C
As of 6:53 PM on Tuesday 21 Oct 2014 (Local Time) from KCRQ Reporting Station
Broken Clouds Broken Clouds  
Wind Chill: 68°   Ceiling: 1200
Heat Index: 68°   Visibility: 10mi
Dew Point: 62°   Wind: 3mph
Humidity: 81%   Direction: 270°W
Pressure: 29.86"   Gusts: NA
Location:  33.1507°N, 117.174°W
Report Text: KCRQ 220153Z 27003KT 10SM BKN012 20/17 A2986 RMK AO2 SLP107 T02000167
Loading
Personal Weather Stations






























Interactive Weather Map
Tropical Storm Tracking
New forecast layout! Learn more

10-Day Weather Forecast

Advertisements
Track Severe Weather on mobile